sensor_id;sensor_type;location;lat;lon;timestamp;pressure;altitude;pressure_sealevel;temperature;humidity
6224;BME280;3145;42.726;23.342;2023-04-03T00:01:59;72637.44;;;-142.70;59.31
6224;BME280;3145;42.726;23.342;2023-04-03T00:04:27;72651.56;;;-142.70;59.81
6224;BME280;3145;42.726;23.342;2023-04-03T00:06:54;72645.50;;;-142.70;60.33
6224;BME280;3145;42.726;23.342;2023-04-03T00:09:21;72641.47;;;-142.70;61.17
6224;BME280;3145;42.726;23.342;2023-04-03T00:11:47;72637.44;;;-142.70;61.36
6224;BME280;3145;42.726;23.342;2023-04-03T00:14:14;72619.31;;;-142.70;60.81
6224;BME280;3145;42.726;23.342;2023-04-03T00:16:41;72617.31;;;-142.70;60.48
6224;BME280;3145;42.726;23.342;2023-04-03T00:19:08;72627.38;;;-142.70;59.47
6224;BME280;3145;42.726;23.342;2023-04-03T00:21:38;72629.38;;;-142.70;59.19
6224;BME280;3145;42.726;23.342;2023-04-03T00:24:05;72629.38;;;-142.70;59.55
6224;BME280;3145;42.726;23.342;2023-04-03T00:26:32;72633.41;;;-142.70;60.28
6224;BME280;3145;42.726;23.342;2023-04-03T00:28:59;72641.47;;;-142.70;60.36
6224;BME280;3145;42.726;23.342;2023-04-03T00:31:26;72643.50;;;-142.70;60.73
6224;BME280;3145;42.726;23.342;2023-04-03T00:33:52;72633.41;;;-142.70;61.59
6224;BME280;3145;42.726;23.342;2023-04-03T00:36:19;72639.47;;;-142.70;60.81
6224;BME280;3145;42.726;23.342;2023-04-03T00:38:47;72657.59;;;-142.70;59.98
6224;BME280;3145;42.726;23.342;2023-04-03T00:41:14;72669.69;;;-142.70;60.67
6224;BME280;3145;42.726;23.342;2023-04-03T00:43:41;72661.63;;;-142.70;61.31
6224;BME280;3145;42.726;23.342;2023-04-03T00:46:08;72675.72;;;-142.70;61.26
6224;BME280;3145;42.726;23.342;2023-04-03T00:48:37;72683.78;;;-142.70;61.71
6224;BME280;3145;42.726;23.342;2023-04-03T00:51:06;72693.84;;;-142.70;61.37
6224;BME280;3145;42.726;23.342;2023-04-03T00:53:36;72716.03;;;-142.70;61.66
6224;BME280;3145;42.726;23.342;2023-04-03T00:56:08;72714.00;;;-142.70;62.32
6224;BME280;3145;42.726;23.342;2023-04-03T00:58:40;72701.91;;;-142.70;62.86
6224;BME280;3145;42.726;23.342;2023-04-03T01:01:13;72709.97;;;-142.70;62.72
6224;BME280;3145;42.726;23.342;2023-04-03T01:03:42;72714.00;;;-142.70;63.12
6224;BME280;3145;42.726;23.342;2023-04-03T01:06:09;72726.09;;;-142.70;63.25
6224;BME280;3145;42.726;23.342;2023-04-03T01:08:36;72724.06;;;-142.70;63.43
6224;BME280;3145;42.726;23.342;2023-04-03T01:11:03;72728.09;;;-142.70;63.16
6224;BME280;3145;42.726;23.342;2023-04-03T01:13:33;72732.13;;;-142.70;63.71
6224;BME280;3145;42.726;23.342;2023-04-03T01:16:01;72728.09;;;-142.70;63.58
6224;BME280;3145;42.726;23.342;2023-04-03T01:18:28;72738.19;;;-142.70;63.88
6224;BME280;3145;42.726;23.342;2023-04-03T01:21:15;72734.16;;;-142.70;64.37
6224;BME280;3145;42.726;23.342;2023-04-03T01:23:59;72734.16;;;-142.70;64.09
6224;BME280;3145;42.726;23.342;2023-04-03T01:26:28;72730.13;;;-142.70;64.08
6224;BME280;3145;42.726;23.342;2023-04-03T01:28:58;72728.09;;;-142.70;64.33
6224;BME280;3145;42.726;23.342;2023-04-03T01:31:28;72738.19;;;-142.70;64.37
6224;BME280;3145;42.726;23.342;2023-04-03T01:33:59;72738.19;;;-142.70;64.28
6224;BME280;3145;42.726;23.342;2023-04-03T01:36:28;72728.09;;;-142.70;64.11
6224;BME280;3145;42.726;23.342;2023-04-03T01:38:56;72722.06;;;-142.70;64.64
6224;BME280;3145;42.726;23.342;2023-04-03T01:41:24;72718.03;;;-142.70;64.96
6224;BME280;3145;42.726;23.342;2023-04-03T01:43:51;72709.97;;;-142.70;64.96
6224;BME280;3145;42.726;23.342;2023-04-03T01:46:19;72707.97;;;-142.70;64.58
6224;BME280;3145;42.726;23.342;2023-04-03T01:48:46;72705.94;;;-142.70;64.76
6224;BME280;3145;42.726;23.342;2023-04-03T01:51:14;72718.03;;;-142.70;64.80
6224;BME280;3145;42.726;23.342;2023-04-03T01:53:41;72722.06;;;-142.70;65.16
6224;BME280;3145;42.726;23.342;2023-04-03T01:56:08;72724.06;;;-142.70;64.94
6224;BME280;3145;42.726;23.342;2023-04-03T01:58:35;72724.06;;;-142.70;65.24
6224;BME280;3145;42.726;23.342;2023-04-03T02:01:02;72730.13;;;-142.70;65.14
6224;BME280;3145;42.726;23.342;2023-04-03T02:03:29;72722.06;;;-142.70;65.30
6224;BME280;3145;42.726;23.342;2023-04-03T02:05:56;72728.09;;;-142.70;65.02
6224;BME280;3145;42.726;23.342;2023-04-03T02:08:24;72780.50;;;-142.70;65.06
6224;BME280;3145;42.726;23.342;2023-04-03T02:10:51;72780.50;;;-142.70;65.11
6224;BME280;3145;42.726;23.342;2023-04-03T02:13:18;72796.59;;;-142.70;65.54
6224;BME280;3145;42.726;23.342;2023-04-03T02:15:45;72798.63;;;-142.70;65.62
6224;BME280;3145;42.726;23.342;2023-04-03T02:18:12;72818.75;;;-142.70;66.04
6224;BME280;3145;42.726;23.342;2023-04-03T02:20:39;72863.09;;;-142.70;66.44
6224;BME280;3145;42.726;23.342;2023-04-03T02:23:06;72855.03;;;-142.70;66.82
6224;BME280;3145;42.726;23.342;2023-04-03T02:25:34;72867.13;;;-142.70;67.66
6224;BME280;3145;42.726;23.342;2023-04-03T02:28:01;72875.19;;;-142.70;67.77
6224;BME280;3145;42.726;23.342;2023-04-03T02:30:27;72883.25;;;-142.70;68.16
6224;BME280;3145;42.726;23.342;2023-04-03T02:32:54;72883.25;;;-142.70;68.33
6224;BME280;3145;42.726;23.342;2023-04-03T02:35:21;72879.22;;;-142.70;68.23
6224;BME280;3145;42.726;23.342;2023-04-03T02:37:48;72883.25;;;-142.70;68.21
6224;BME280;3145;42.726;23.342;2023-04-03T02:40:14;72891.28;;;-142.70;68.40
6224;BME280;3145;42.726;23.342;2023-04-03T02:42:42;72893.31;;;-142.70;69.01
6224;BME280;3145;42.726;23.342;2023-04-03T02:45:10;72887.25;;;-142.70;68.95
6224;BME280;3145;42.726;23.342;2023-04-03T02:47:37;72883.25;;;-142.70;69.34
6224;BME280;3145;42.726;23.342;2023-04-03T02:50:04;72881.22;;;-142.70;69.50
6224;BME280;3145;42.726;23.342;2023-04-03T02:52:31;72875.19;;;-142.70;69.29
6224;BME280;3145;42.726;23.342;2023-04-03T02:54:58;72879.22;;;-142.70;69.23
6224;BME280;3145;42.726;23.342;2023-04-03T02:57:25;72867.13;;;-142.70;69.50
6224;BME280;3145;42.726;23.342;2023-04-03T02:59:53;72851.00;;;-142.70;69.12
6224;BME280;3145;42.726;23.342;2023-04-03T03:02:19;72846.97;;;-142.70;68.99
6224;BME280;3145;42.726;23.342;2023-04-03T03:04:46;72846.97;;;-142.70;68.58
6224;BME280;3145;42.726;23.342;2023-04-03T03:07:13;72838.91;;;-142.70;68.22
6224;BME280;3145;42.726;23.342;2023-04-03T03:09:40;72851.00;;;-142.70;68.19
6224;BME280;3145;42.726;23.342;2023-04-03T03:12:07;72855.03;;;-142.70;68.06
6224;BME280;3145;42.726;23.342;2023-04-03T03:14:34;72859.06;;;-142.70;68.07
6224;BME280;3145;42.726;23.342;2023-04-03T03:17:02;72855.03;;;-142.70;68.68
6224;BME280;3145;42.726;23.342;2023-04-03T03:19:28;72844.97;;;-142.70;69.00
6224;BME280;3145;42.726;23.342;2023-04-03T03:21:55;72838.91;;;-142.70;69.05
6224;BME280;3145;42.726;23.342;2023-04-03T03:24:22;72865.09;;;-142.70;68.56
6224;BME280;3145;42.726;23.342;2023-04-03T03:26:49;72873.16;;;-142.70;68.49
6224;BME280;3145;42.726;23.342;2023-04-03T03:29:15;72877.19;;;-142.70;68.63
6224;BME280;3145;42.726;23.342;2023-04-03T03:31:42;72883.25;;;-142.70;68.32
6224;BME280;3145;42.726;23.342;2023-04-03T03:34:10;72883.25;;;-142.70;68.73
6224;BME280;3145;42.726;23.342;2023-04-03T03:36:37;72893.31;;;-142.70;68.92
6224;BME280;3145;42.726;23.342;2023-04-03T03:39:04;72887.25;;;-142.70;69.10
6224;BME280;3145;42.726;23.342;2023-04-03T03:41:31;72891.28;;;-142.70;69.31
6224;BME280;3145;42.726;23.342;2023-04-03T03:43:57;72879.22;;;-142.70;69.52
6224;BME280;3145;42.726;23.342;2023-04-03T03:46:24;72915.47;;;-142.70;69.18
6224;BME280;3145;42.726;23.342;2023-04-03T03:48:51;72939.66;;;-142.70;69.12
6224;BME280;3145;42.726;23.342;2023-04-03T03:51:19;72969.88;;;-142.70;69.35
6224;BME280;3145;42.726;23.342;2023-04-03T03:53:46;72967.84;;;-142.70;69.70
6224;BME280;3145;42.726;23.342;2023-04-03T03:56:12;72963.81;;;-142.70;69.71
6224;BME280;3145;42.726;23.342;2023-04-03T03:58:39;72953.75;;;-142.70;70.00
6224;BME280;3145;42.726;23.342;2023-04-03T04:01:07;72947.72;;;-142.70;69.95
6224;BME280;3145;42.726;23.342;2023-04-03T04:03:34;72939.66;;;-142.70;70.17
6224;BME280;3145;42.726;23.342;2023-04-03T04:06:00;72927.56;;;-142.70;70.47
6224;BME280;3145;42.726;23.342;2023-04-03T04:08:29;72919.50;;;-142.70;70.34
6224;BME280;3145;42.726;23.342;2023-04-03T04:10:55;72919.50;;;-142.70;70.60
6224;BME280;3145;42.726;23.342;2023-04-03T04:13:22;72919.50;;;-142.70;70.65
6224;BME280;3145;42.726;23.342;2023-04-03T04:15:49;72913.47;;;-142.70;70.86
6224;BME280;3145;42.726;23.342;2023-04-03T04:18:18;72913.47;;;-142.70;70.68
6224;BME280;3145;42.726;23.342;2023-04-03T04:20:48;72917.50;;;-142.70;70.58
6224;BME280;3145;42.726;23.342;2023-04-03T04:23:15;72923.53;;;-142.70;70.96
6224;BME280;3145;42.726;23.342;2023-04-03T04:25:45;72927.56;;;-142.70;70.35
6224;BME280;3145;42.726;23.342;2023-04-03T04:28:13;72923.53;;;-142.70;70.52
6224;BME280;3145;42.726;23.342;2023-04-03T04:30:40;72909.44;;;-142.70;70.42
6224;BME280;3145;42.726;23.342;2023-04-03T04:33:07;72907.41;;;-142.70;70.30
6224;BME280;3145;42.726;23.342;2023-04-03T04:35:33;72899.34;;;-142.70;70.27
6224;BME280;3145;42.726;23.342;2023-04-03T04:38:00;72895.31;;;-142.70;70.29
6224;BME280;3145;42.726;23.342;2023-04-03T04:40:28;72885.25;;;-142.70;69.90
6224;BME280;3145;42.726;23.342;2023-04-03T04:42:56;72879.22;;;-142.70;69.98
6224;BME280;3145;42.726;23.342;2023-04-03T04:45:23;72883.25;;;-142.70;69.71
6224;BME280;3145;42.726;23.342;2023-04-03T04:47:49;72871.16;;;-142.70;69.99
6224;BME280;3145;42.726;23.342;2023-04-03T04:50:18;72867.13;;;-142.70;69.59
6224;BME280;3145;42.726;23.342;2023-04-03T04:52:45;72867.13;;;-142.70;69.35
6224;BME280;3145;42.726;23.342;2023-04-03T04:55:11;72871.16;;;-142.70;69.32
6224;BME280;3145;42.726;23.342;2023-04-03T04:57:38;72885.25;;;-142.70;69.15
6224;BME280;3145;42.726;23.342;2023-04-03T05:00:07;72881.22;;;-142.70;69.13
6224;BME280;3145;42.726;23.342;2023-04-03T05:02:34;72873.16;;;-142.70;68.87
6224;BME280;3145;42.726;23.342;2023-04-03T05:05:01;72873.16;;;-142.70;68.85
6224;BME280;3145;42.726;23.342;2023-04-03T05:07:28;72867.13;;;-142.70;68.67
6224;BME280;3145;42.726;23.342;2023-04-03T05:09:55;72867.13;;;-142.70;68.76
6224;BME280;3145;42.726;23.342;2023-04-03T05:12:21;72863.09;;;-142.70;68.22
6224;BME280;3145;42.726;23.342;2023-04-03T05:14:48;72853.00;;;-142.70;68.61
6224;BME280;3145;42.726;23.342;2023-04-03T05:17:16;72849.00;;;-142.70;68.48
6224;BME280;3145;42.726;23.342;2023-04-03T05:19:43;72842.94;;;-142.70;68.16
6224;BME280;3145;42.726;23.342;2023-04-03T05:22:10;72834.88;;;-142.70;68.20
6224;BME280;3145;42.726;23.342;2023-04-03T05:24:36;72838.91;;;-142.70;67.83
6224;BME280;3145;42.726;23.342;2023-04-03T05:27:03;72838.91;;;-142.70;67.71
6224;BME280;3145;42.726;23.342;2023-04-03T05:29:30;72818.75;;;-142.70;67.82
6224;BME280;3145;42.726;23.342;2023-04-03T05:31:57;72800.63;;;-142.70;67.42
6224;BME280;3145;42.726;23.342;2023-04-03T05:34:25;72808.69;;;-142.70;66.95
6224;BME280;3145;42.726;23.342;2023-04-03T05:36:51;72810.72;;;-142.70;66.84
6224;BME280;3145;42.726;23.342;2023-04-03T05:39:18;72792.56;;;-142.70;67.11
6224;BME280;3145;42.726;23.342;2023-04-03T05:41:45;72766.38;;;-142.70;66.92
6224;BME280;3145;42.726;23.342;2023-04-03T05:44:11;72746.25;;;-142.70;67.11
6224;BME280;3145;42.726;23.342;2023-04-03T05:46:38;72730.13;;;-142.70;66.64
6224;BME280;3145;42.726;23.342;2023-04-03T05:49:05;72722.06;;;-142.70;66.84
6224;BME280;3145;42.726;23.342;2023-04-03T05:51:35;72703.94;;;-142.70;66.52
6224;BME280;3145;42.726;23.342;2023-04-03T05:54:08;72689.84;;;-142.70;66.39
6224;BME280;3145;42.726;23.342;2023-04-03T05:56:36;72671.69;;;-142.70;66.10
6224;BME280;3145;42.726;23.342;2023-04-03T05:59:03;72661.63;;;-142.70;66.15
6224;BME280;3145;42.726;23.342;2023-04-03T06:01:29;72641.47;;;-142.70;66.28
6224;BME280;3145;42.726;23.342;2023-04-03T06:03:56;72641.47;;;-142.70;65.62
6224;BME280;3145;42.726;23.342;2023-04-03T06:06:23;72619.31;;;-142.70;65.20
6224;BME280;3145;42.726;23.342;2023-04-03T06:08:52;72609.25;;;-142.70;65.28
6224;BME280;3145;42.726;23.342;2023-04-03T06:11:18;72595.16;;;-142.70;65.19
6224;BME280;3145;42.726;23.342;2023-04-03T06:13:46;72585.06;;;-142.70;64.90
6224;BME280;3145;42.726;23.342;2023-04-03T06:16:18;72564.94;;;-142.70;64.51
6224;BME280;3145;42.726;23.342;2023-04-03T06:18:45;72552.84;;;-142.70;63.99
6224;BME280;3145;42.726;23.342;2023-04-03T06:21:12;72548.81;;;-142.70;64.06
6224;BME280;3145;42.726;23.342;2023-04-03T06:23:39;72528.66;;;-142.70;63.94
6224;BME280;3145;42.726;23.342;2023-04-03T06:26:07;72508.53;;;-142.70;63.66
6224;BME280;3145;42.726;23.342;2023-04-03T06:28:34;72500.47;;;-142.70;63.80
6224;BME280;3145;42.726;23.342;2023-04-03T06:31:00;72486.34;;;-142.70;62.85
6224;BME280;3145;42.726;23.342;2023-04-03T06:33:27;72490.38;;;-142.70;61.77
6224;BME280;3145;42.726;23.342;2023-04-03T06:35:57;72532.69;;;-142.70;61.16
6224;BME280;3145;42.726;23.342;2023-04-03T06:38:24;72508.53;;;-142.70;60.68
6224;BME280;3145;42.726;23.342;2023-04-03T06:40:51;72486.34;;;-142.70;59.31
6224;BME280;3145;42.726;23.342;2023-04-03T06:43:20;72488.38;;;-142.70;58.95
6224;BME280;3145;42.726;23.342;2023-04-03T06:45:47;72480.31;;;-142.70;58.96
6224;BME280;3145;42.726;23.342;2023-04-03T06:48:13;72456.16;;;-142.70;59.08
6224;BME280;3145;42.726;23.342;2023-04-03T06:50:40;72448.09;;;-142.70;58.53
6224;BME280;3145;42.726;23.342;2023-04-03T06:53:07;72438.00;;;-142.70;57.71
6224;BME280;3145;42.726;23.342;2023-04-03T06:55:34;72407.81;;;-142.70;57.94
6224;BME280;3145;42.726;23.342;2023-04-03T06:58:01;72399.75;;;-142.70;57.70
6224;BME280;3145;42.726;23.342;2023-04-03T07:00:30;72385.63;;;-142.70;57.42
6224;BME280;3145;42.726;23.342;2023-04-03T07:02:56;72371.53;;;-142.70;56.89
6224;BME280;3145;42.726;23.342;2023-04-03T07:05:23;72367.50;;;-142.70;56.98
6224;BME280;3145;42.726;23.342;2023-04-03T07:07:50;72339.31;;;-142.70;57.26
6224;BME280;3145;42.726;23.342;2023-04-03T07:10:17;72321.19;;;-142.70;57.01
6224;BME280;3145;42.726;23.342;2023-04-03T07:12:44;72295.00;;;-142.70;56.15
6224;BME280;3145;42.726;23.342;2023-04-03T07:15:11;72278.88;;;-142.70;54.49
6224;BME280;3145;42.726;23.342;2023-04-03T07:17:40;72274.84;;;-142.70;54.16
6224;BME280;3145;42.726;23.342;2023-04-03T07:20:08;72258.72;;;-142.70;54.13
6224;BME280;3145;42.726;23.342;2023-04-03T07:22:35;72234.56;;;-142.70;53.28
6224;BME280;3145;42.726;23.342;2023-04-03T07:25:03;72218.44;;;-142.70;52.87
6224;BME280;3145;42.726;23.342;2023-04-03T07:27:32;72208.38;;;-142.70;52.20
6224;BME280;3145;42.726;23.342;2023-04-03T07:29:58;72198.31;;;-142.70;51.85
6224;BME280;3145;42.726;23.342;2023-04-03T07:32:25;72190.25;;;-142.70;51.01
6224;BME280;3145;42.726;23.342;2023-04-03T07:34:54;72194.28;;;-142.70;51.67
6224;BME280;3145;42.726;23.342;2023-04-03T07:37:20;72194.28;;;-142.70;51.72
6224;BME280;3145;42.726;23.342;2023-04-03T07:39:47;72206.34;;;-142.70;50.28
6224;BME280;3145;42.726;23.342;2023-04-03T07:42:14;72198.31;;;-142.70;50.52
6224;BME280;3145;42.726;23.342;2023-04-03T07:44:41;72224.50;;;-142.70;51.04
6224;BME280;3145;42.726;23.342;2023-04-03T07:47:08;72262.75;;;-142.70;52.48
6224;BME280;3145;42.726;23.342;2023-04-03T07:49:35;72246.66;;;-142.70;52.25
6224;BME280;3145;42.726;23.342;2023-04-03T07:52:06;72262.75;;;-142.70;53.18
6224;BME280;3145;42.726;23.342;2023-04-03T07:54:34;72238.59;;;-142.70;52.53
6224;BME280;3145;42.726;23.342;2023-04-03T07:57:01;72250.69;;;-142.70;52.67
6224;BME280;3145;42.726;23.342;2023-04-03T07:59:27;72262.75;;;-142.70;53.71
6224;BME280;3145;42.726;23.342;2023-04-03T08:01:54;72228.53;;;-142.70;54.09
6224;BME280;3145;42.726;23.342;2023-04-03T08:04:21;72234.56;;;-142.70;53.44
6224;BME280;3145;42.726;23.342;2023-04-03T08:06:48;72242.63;;;-142.70;54.30
6224;BME280;3145;42.726;23.342;2023-04-03T08:09:16;72256.72;;;-142.70;54.06
6224;BME280;3145;42.726;23.342;2023-04-03T08:11:44;72234.56;;;-142.70;53.98
6224;BME280;3145;42.726;23.342;2023-04-03T08:14:11;72206.34;;;-142.70;52.27
6224;BME280;3145;42.726;23.342;2023-04-03T08:16:42;72186.22;;;-142.70;51.42
6224;BME280;3145;42.726;23.342;2023-04-03T08:19:09;72166.06;;;-142.70;50.71
6224;BME280;3145;42.726;23.342;2023-04-03T08:21:36;72182.19;;;-142.70;50.91
6224;BME280;3145;42.726;23.342;2023-04-03T08:24:03;72174.13;;;-142.70;51.18
6224;BME280;3145;42.726;23.342;2023-04-03T08:26:32;72139.88;;;-142.70;51.09
6224;BME280;3145;42.726;23.342;2023-04-03T08:28:59;72105.66;;;-142.70;51.16
6224;BME280;3145;42.726;23.342;2023-04-03T08:31:26;72093.56;;;-142.70;50.24
6224;BME280;3145;42.726;23.342;2023-04-03T08:33:53;72077.44;;;-142.70;49.78
6224;BME280;3145;42.726;23.342;2023-04-03T08:36:21;72065.38;;;-142.70;49.94
6224;BME280;3145;42.726;23.342;2023-04-03T08:38:48;72057.31;;;-142.70;49.66
6224;BME280;3145;42.726;23.342;2023-04-03T08:41:20;72017.03;;;-142.70;47.87
6224;BME280;3145;42.726;23.342;2023-04-03T08:44:03;72031.13;;;-142.70;48.14
6224;BME280;3145;42.726;23.342;2023-04-03T08:46:43;72035.16;;;-142.70;48.24
6224;BME280;3145;42.726;23.342;2023-04-03T08:49:21;72041.19;;;-142.70;47.92
6224;BME280;3145;42.726;23.342;2023-04-03T08:51:50;72019.03;;;-142.70;48.40
6224;BME280;3145;42.726;23.342;2023-04-03T08:54:27;71992.84;;;-142.70;47.33
6224;BME280;3145;42.726;23.342;2023-04-03T08:56:56;71970.69;;;-142.70;46.88
6224;BME280;3145;42.726;23.342;2023-04-03T08:59:28;71982.78;;;-142.70;47.72
6224;BME280;3145;42.726;23.342;2023-04-03T09:01:57;71948.53;;;-142.70;46.68
6224;BME280;3145;42.726;23.342;2023-04-03T09:04:28;71912.28;;;-142.70;46.39
6224;BME280;3145;42.726;23.342;2023-04-03T09:07:03;71916.31;;;-142.70;46.35
6224;BME280;3145;42.726;23.342;2023-04-03T09:09:36;71900.19;;;-142.70;46.32
6224;BME280;3145;42.726;23.342;2023-04-03T09:12:15;71880.06;;;-142.70;46.16
6224;BME280;3145;42.726;23.342;2023-04-03T09:14:49;71888.13;;;-142.70;45.53
6224;BME280;3145;42.726;23.342;2023-04-03T09:17:29;71906.25;;;-142.70;45.95
6224;BME280;3145;42.726;23.342;2023-04-03T09:20:04;71908.25;;;-142.70;45.53
6224;BME280;3145;42.726;23.342;2023-04-03T09:22:38;71906.25;;;-142.70;45.83
6224;BME280;3145;42.726;23.342;2023-04-03T09:25:13;71896.16;;;-142.70;46.12
6224;BME280;3145;42.726;23.342;2023-04-03T09:27:41;71932.44;;;-142.70;46.72
6224;BME280;3145;42.726;23.342;2023-04-03T09:30:14;71962.63;;;-142.70;47.37
6224;BME280;3145;42.726;23.342;2023-04-03T09:32:43;71940.47;;;-142.70;48.65
6224;BME280;3145;42.726;23.342;2023-04-03T09:35:18;71934.44;;;-142.70;48.33
6224;BME280;3145;42.726;23.342;2023-04-03T09:37:47;71948.53;;;-142.70;48.50
6224;BME280;3145;42.726;23.342;2023-04-03T09:40:32;71952.56;;;-142.70;49.27
6224;BME280;3145;42.726;23.342;2023-04-03T09:43:02;71972.72;;;-142.70;48.70
6224;BME280;3145;42.726;23.342;2023-04-03T09:45:32;71960.63;;;-142.70;48.52
6224;BME280;3145;42.726;23.342;2023-04-03T09:48:08;71956.59;;;-142.70;48.45
6224;BME280;3145;42.726;23.342;2023-04-03T09:50:53;71926.38;;;-142.70;47.44
6224;BME280;3145;42.726;23.342;2023-04-03T09:53:28;71898.19;;;-142.70;47.30
6224;BME280;3145;42.726;23.342;2023-04-03T09:55:55;71876.03;;;-142.70;46.72
6224;BME280;3145;42.726;23.342;2023-04-03T09:58:27;71872.00;;;-142.70;47.46
6224;BME280;3145;42.726;23.342;2023-04-03T10:00:57;71876.03;;;-142.70;47.03
6224;BME280;3145;42.726;23.342;2023-04-03T10:03:28;71922.34;;;-142.70;47.81
6224;BME280;3145;42.726;23.342;2023-04-03T10:05:56;71908.25;;;-142.70;48.11
6224;BME280;3145;42.726;23.342;2023-04-03T10:08:26;71900.19;;;-142.70;48.52
6224;BME280;3145;42.726;23.342;2023-04-03T10:11:15;71898.19;;;-142.70;48.40
6224;BME280;3145;42.726;23.342;2023-04-03T10:13:53;71932.44;;;-142.70;48.87
6224;BME280;3145;42.726;23.342;2023-04-03T10:16:25;71928.41;;;-142.70;49.16
6224;BME280;3145;42.726;23.342;2023-04-03T10:19:06;71920.34;;;-142.70;49.72
6224;BME280;3145;42.726;23.342;2023-04-03T10:21:42;71898.19;;;-142.70;48.83
6224;BME280;3145;42.726;23.342;2023-04-03T10:24:14;71908.25;;;-142.70;49.05
6224;BME280;3145;42.726;23.342;2023-04-03T10:26:52;71892.16;;;-142.70;49.82
6224;BME280;3145;42.726;23.342;2023-04-03T10:29:30;71880.06;;;-142.70;48.55
6224;BME280;3145;42.726;23.342;2023-04-03T10:32:32;71880.06;;;-142.70;49.12
6224;BME280;3145;42.726;23.342;2023-04-03T10:35:09;71876.03;;;-142.70;47.94
6224;BME280;3145;42.726;23.342;2023-04-03T10:37:50;71859.91;;;-142.70;47.43
6224;BME280;3145;42.726;23.342;2023-04-03T10:40:27;71857.91;;;-142.70;46.37
6224;BME280;3145;42.726;23.342;2023-04-03T10:43:01;71839.78;;;-142.70;46.14
6224;BME280;3145;42.726;23.342;2023-04-03T10:45:51;71823.66;;;-142.70;45.83
6224;BME280;3145;42.726;23.342;2023-04-03T10:48:32;71815.59;;;-142.70;46.51
6224;BME280;3145;42.726;23.342;2023-04-03T10:51:11;71823.66;;;-142.70;45.80
6224;BME280;3145;42.726;23.342;2023-04-03T10:53:44;71813.59;;;-142.70;45.53
6224;BME280;3145;42.726;23.342;2023-04-03T10:56:19;71821.66;;;-142.70;46.21
6224;BME280;3145;42.726;23.342;2023-04-03T10:58:54;71819.63;;;-142.70;46.63
6224;BME280;3145;42.726;23.342;2023-04-03T11:01:26;71819.63;;;-142.70;46.53
6224;BME280;3145;42.726;23.342;2023-04-03T11:04:00;71807.56;;;-142.70;46.03
6224;BME280;3145;42.726;23.342;2023-04-03T11:06:33;71803.53;;;-142.70;46.17
6224;BME280;3145;42.726;23.342;2023-04-03T11:09:09;71803.53;;;-142.70;46.86
6224;BME280;3145;42.726;23.342;2023-04-03T11:11:42;71813.59;;;-142.70;47.54
6224;BME280;3145;42.726;23.342;2023-04-03T11:14:13;71821.66;;;-142.70;47.87
6224;BME280;3145;42.726;23.342;2023-04-03T11:16:43;71831.72;;;-142.70;48.37
6224;BME280;3145;42.726;23.342;2023-04-03T11:19:18;71843.81;;;-142.70;48.38
6224;BME280;3145;42.726;23.342;2023-04-03T11:21:52;71859.91;;;-142.70;48.60
6224;BME280;3145;42.726;23.342;2023-04-03T11:24:23;71859.91;;;-142.70;49.57
6224;BME280;3145;42.726;23.342;2023-04-03T11:26:52;71892.16;;;-142.70;49.39
6224;BME280;3145;42.726;23.342;2023-04-03T11:29:22;71894.16;;;-142.70;50.01
6224;BME280;3145;42.726;23.342;2023-04-03T11:32:05;71908.25;;;-142.70;52.07
6224;BME280;3145;42.726;23.342;2023-04-03T11:34:39;71924.38;;;-142.70;52.71
6224;BME280;3145;42.726;23.342;2023-04-03T11:37:15;71932.44;;;-142.70;54.35
6224;BME280;3145;42.726;23.342;2023-04-03T11:39:50;71950.56;;;-142.70;54.51
6224;BME280;3145;42.726;23.342;2023-04-03T11:42:33;71966.66;;;-142.70;55.92
6224;BME280;3145;42.726;23.342;2023-04-03T11:48:43;72008.97;;;-142.70;60.95
6224;BME280;3145;42.726;23.342;2023-04-03T11:54:46;72004.94;;;-142.70;63.19
6224;BME280;3145;42.726;23.342;2023-04-03T11:58:02;72013.00;;;-142.70;64.90
6224;BME280;3145;42.726;23.342;2023-04-03T12:00:58;72004.94;;;-142.70;65.46
6224;BME280;3145;42.726;23.342;2023-04-03T12:09:57;72008.97;;;-142.70;66.66
6224;BME280;3145;42.726;23.342;2023-04-03T12:12:30;72021.06;;;-142.70;66.45
6224;BME280;3145;42.726;23.342;2023-04-03T12:15:22;72041.19;;;-142.70;66.50
6224;BME280;3145;42.726;23.342;2023-04-03T12:17:49;72043.19;;;-142.70;67.96
6224;BME280;3145;42.726;23.342;2023-04-03T12:20:54;72047.22;;;-142.70;68.62
6224;BME280;3145;42.726;23.342;2023-04-03T12:23:31;72053.28;;;-142.70;69.28
6224;BME280;3145;42.726;23.342;2023-04-03T12:26:05;72073.41;;;-142.70;69.82
6224;BME280;3145;42.726;23.342;2023-04-03T12:28:45;72065.38;;;-142.70;70.62
6224;BME280;3145;42.726;23.342;2023-04-03T12:31:14;72089.53;;;-142.70;71.00
6224;BME280;3145;42.726;23.342;2023-04-03T12:34:05;72097.59;;;-142.70;72.11
6224;BME280;3145;42.726;23.342;2023-04-03T12:36:45;72113.69;;;-142.70;72.29
6224;BME280;3145;42.726;23.342;2023-04-03T12:39:26;72121.75;;;-142.70;72.74
6224;BME280;3145;42.726;23.342;2023-04-03T12:42:18;72121.75;;;-142.70;73.24
6224;BME280;3145;42.726;23.342;2023-04-03T12:44:56;72125.78;;;-142.70;73.60
6224;BME280;3145;42.726;23.342;2023-04-03T12:47:29;72133.84;;;-142.70;73.67
6224;BME280;3145;42.726;23.342;2023-04-03T12:49:59;72145.94;;;-142.70;74.09
6224;BME280;3145;42.726;23.342;2023-04-03T12:52:33;72154.00;;;-142.70;75.03
6224;BME280;3145;42.726;23.342;2023-04-03T12:55:02;72178.16;;;-142.70;75.35
6224;BME280;3145;42.726;23.342;2023-04-03T12:57:31;72172.13;;;-142.70;76.12
6224;BME280;3145;42.726;23.342;2023-04-03T12:59:59;72182.19;;;-142.70;76.70
6224;BME280;3145;42.726;23.342;2023-04-03T13:02:27;72178.16;;;-142.70;77.34
6224;BME280;3145;42.726;23.342;2023-04-03T13:04:58;72178.16;;;-142.70;78.10
6224;BME280;3145;42.726;23.342;2023-04-03T13:07:28;72186.22;;;-142.70;78.41
6224;BME280;3145;42.726;23.342;2023-04-03T13:10:14;72194.28;;;-142.70;79.18
6224;BME280;3145;42.726;23.342;2023-04-03T13:12:48;72204.34;;;-142.70;79.85
6224;BME280;3145;42.726;23.342;2023-04-03T13:15:18;72198.31;;;-142.70;80.62
6224;BME280;3145;42.726;23.342;2023-04-03T13:17:46;72208.38;;;-142.70;80.73
6224;BME280;3145;42.726;23.342;2023-04-03T13:20:18;72208.38;;;-142.70;81.35